createdAt,value
2023-03-17T00:00:12.941Z,99.90
2023-03-17T00:02:49.723Z,99.90
2023-03-17T00:05:35.055Z,99.90
2023-03-17T00:08:15.544Z,99.90
2023-03-17T00:10:53.077Z,99.90
2023-03-17T00:13:27.255Z,99.90
2023-03-17T00:16:04.869Z,99.90
2023-03-17T00:18:45.244Z,99.90
2023-03-17T00:21:20.226Z,99.90
2023-03-17T00:23:57.281Z,99.90
2023-03-17T00:26:34.421Z,99.90
2023-03-17T00:29:10.865Z,99.90
2023-03-17T00:31:51.710Z,99.90
2023-03-17T00:34:38.615Z,99.90
2023-03-17T00:37:14.132Z,99.90
2023-03-17T00:39:52.572Z,99.90
2023-03-17T00:42:41.585Z,99.90
2023-03-17T00:45:27.239Z,99.90
2023-03-17T00:48:17.710Z,99.90
2023-03-17T00:51:03.184Z,99.90
2023-03-17T00:53:51.737Z,99.90
2023-03-17T00:56:28.482Z,99.90
2023-03-17T00:59:07.353Z,99.90
2023-03-17T01:01:53.380Z,99.90
2023-03-17T01:07:36.562Z,99.90
2023-03-17T01:13:31.627Z,99.90
2023-03-17T01:16:22.190Z,99.90
2023-03-17T01:19:05.675Z,99.90
2023-03-17T01:21:49.200Z,99.90
2023-03-17T01:24:50.299Z,99.90
2023-03-17T01:30:41.618Z,99.90
2023-03-17T01:33:37.249Z,99.90
2023-03-17T01:39:24.595Z,99.90
2023-03-17T01:42:29.307Z,99.90
2023-03-17T01:45:24.464Z,99.90
2023-03-17T02:43:37.897Z,99.90
2023-03-17T03:08:31.978Z,99.90
2023-03-17T03:26:41.781Z,99.90
2023-03-17T03:35:30.851Z,99.90
2023-03-17T03:40:55.969Z,99.90
2023-03-17T03:46:39.008Z,99.90
2023-03-17T03:49:15.308Z,99.90
2023-03-17T03:52:01.423Z,99.90
2023-03-17T03:54:43.216Z,99.90
2023-03-17T03:57:29.424Z,99.90
2023-03-17T04:00:03.944Z,99.90
2023-03-17T04:02:48.438Z,99.90
2023-03-17T04:05:37.222Z,99.90
2023-03-17T04:08:13.663Z,99.90
2023-03-17T04:10:51.598Z,99.90
2023-03-17T04:13:27.389Z,99.90
2023-03-17T04:16:04.665Z,99.90
2023-03-17T04:18:41.810Z,99.90
2023-03-17T04:21:43.462Z,99.90
2023-03-17T04:24:17.944Z,99.90
2023-03-17T04:26:54.206Z,99.90
2023-03-17T04:29:30.012Z,99.90
2023-03-17T04:35:05.870Z,99.90
2023-03-17T04:37:44.647Z,99.90
2023-03-17T04:40:37.990Z,99.90
2023-03-17T04:43:17.723Z,99.90
2023-03-17T04:45:51.179Z,99.90
2023-03-17T04:51:24.938Z,99.90
2023-03-17T04:54:03.147Z,99.90
2023-03-17T05:05:31.335Z,99.90
2023-03-17T05:11:19.305Z,99.90
2023-03-17T05:14:01.244Z,99.90
2023-03-17T05:16:35.032Z,99.90
2023-03-17T05:19:10.157Z,99.90
2023-03-17T05:21:47.622Z,99.90
2023-03-17T05:24:25.824Z,99.90
2023-03-17T05:27:04.479Z,99.90
2023-03-17T05:29:45.991Z,99.90
2023-03-17T05:32:23.167Z,99.90
2023-03-17T05:35:03.367Z,99.90
2023-03-17T05:37:39.283Z,99.90
2023-03-17T05:40:18.881Z,99.90
2023-03-17T05:45:54.146Z,99.90
2023-03-17T05:48:35.196Z,99.90
2023-03-17T05:51:16.129Z,99.90
2023-03-17T05:53:47.380Z,99.90
2023-03-17T05:56:34.144Z,99.90
2023-03-17T06:02:16.469Z,99.90
2023-03-17T06:04:49.216Z,99.90
2023-03-17T06:07:50.813Z,99.90
2023-03-17T06:51:40.359Z,99.90
2023-03-17T06:54:19.470Z,99.90
2023-03-17T06:57:00.347Z,99.90
2023-03-17T06:59:38.164Z,99.90
2023-03-17T07:02:16.710Z,99.90
2023-03-17T07:05:01.756Z,99.90
2023-03-17T07:07:36.982Z,99.90
2023-03-17T07:10:19.254Z,99.90
2023-03-17T07:12:59.131Z,99.90
2023-03-17T07:15:36.513Z,99.90
2023-03-17T07:18:10.474Z,99.90
2023-03-17T07:20:48.386Z,99.90
2023-03-17T07:23:27.495Z,99.90
2023-03-17T07:26:02.430Z,99.90
2023-03-17T07:28:43.489Z,99.90
2023-03-17T07:31:16.100Z,99.90
2023-03-17T07:33:50.334Z,99.90
2023-03-17T07:36:32.255Z,99.90
2023-03-17T07:39:10.128Z,99.90
2023-03-17T07:41:55.437Z,99.90
2023-03-17T07:44:36.427Z,99.90
2023-03-17T07:47:14.180Z,99.90
2023-03-17T07:49:52.137Z,99.90
2023-03-17T07:52:28.292Z,99.90
2023-03-17T07:55:03.546Z,99.90
2023-03-17T07:57:39.564Z,99.90
2023-03-17T08:00:26.141Z,99.90
2023-03-17T08:03:10.320Z,99.90
2023-03-17T08:05:47.492Z,99.90
2023-03-17T08:08:27.837Z,99.90
2023-03-17T08:11:20.473Z,99.90
2023-03-17T08:13:53.723Z,99.90
2023-03-17T08:16:36.645Z,99.90
2023-03-17T08:19:11.235Z,99.90
2023-03-17T08:21:50.088Z,99.90
2023-03-17T08:24:27.082Z,99.90
2023-03-17T08:27:06.406Z,99.90
2023-03-17T08:29:57.562Z,99.90
2023-03-17T08:32:40.429Z,99.90
2023-03-17T08:35:23.812Z,99.90
2023-03-17T08:38:02.072Z,99.90
2023-03-17T08:40:36.928Z,99.90
2023-03-17T08:43:29.528Z,99.90
2023-03-17T08:46:07.140Z,99.90
2023-03-17T08:48:45.661Z,99.90
2023-03-17T08:54:16.858Z,99.90
2023-03-17T08:56:57.554Z,99.90
2023-03-17T08:59:36.569Z,99.90
2023-03-17T09:02:17.000Z,99.90
2023-03-17T09:04:59.989Z,99.90
2023-03-17T09:07:38.534Z,99.90
2023-03-17T09:10:21.874Z,99.90
2023-03-17T09:13:09.557Z,99.90
2023-03-17T09:15:51.325Z,99.90
2023-03-17T09:18:32.508Z,99.90
2023-03-17T09:21:13.563Z,99.90
2023-03-17T09:23:47.995Z,99.90
2023-03-17T09:26:25.851Z,99.90
2023-03-17T09:29:05.862Z,99.90
2023-03-17T09:31:45.884Z,99.90
2023-03-17T09:34:22.794Z,99.90
2023-03-17T09:37:11.061Z,99.70
2023-03-17T09:39:52.248Z,99.60
2023-03-17T09:42:37.080Z,99.10
2023-03-17T09:45:20.211Z,99.00
2023-03-17T09:48:05.272Z,98.70
2023-03-17T09:50:40.239Z,97.40
2023-03-17T09:53:19.539Z,98.40
2023-03-17T09:56:05.169Z,97.60
2023-03-17T09:58:44.082Z,97.10
2023-03-17T10:04:22.050Z,96.10
2023-03-17T10:09:46.510Z,96.40
2023-03-17T10:12:29.351Z,95.80
2023-03-17T10:15:05.448Z,96.40
2023-03-17T10:17:43.840Z,95.80
2023-03-17T10:20:25.732Z,94.80
2023-03-17T10:23:02.359Z,94.10
2023-03-17T10:25:38.129Z,95.40
2023-03-17T10:28:23.268Z,94.00
2023-03-17T10:30:58.912Z,94.70
2023-03-17T10:33:33.840Z,94.40
2023-03-17T10:36:18.924Z,94.80
2023-03-17T10:38:59.154Z,92.90
2023-03-17T10:41:36.469Z,92.00
2023-03-17T10:44:25.183Z,92.00
2023-03-17T10:47:01.058Z,92.60
2023-03-17T10:49:35.783Z,92.00
2023-03-17T10:52:11.865Z,91.40
2023-03-17T10:54:59.203Z,90.70
2023-03-17T10:57:37.906Z,90.80
2023-03-17T11:00:20.645Z,90.20
2023-03-17T11:02:54.815Z,90.50
2023-03-17T11:05:30.261Z,90.60
2023-03-17T11:08:14.122Z,90.90
2023-03-17T11:10:50.726Z,89.30
2023-03-17T11:13:27.194Z,89.90
2023-03-17T11:16:11.950Z,89.60
2023-03-17T11:18:51.809Z,88.80
2023-03-17T11:21:24.626Z,89.10
2023-03-17T11:24:06.610Z,90.20
2023-03-17T11:26:57.227Z,89.80
2023-03-17T11:29:58.009Z,90.00
2023-03-17T11:32:45.275Z,88.80
2023-03-17T11:35:40.897Z,90.80
2023-03-17T11:38:46.825Z,89.50
2023-03-17T11:41:46.742Z,90.60
2023-03-17T11:44:46.634Z,89.00
2023-03-17T11:47:29.727Z,88.60
2023-03-17T11:50:16.360Z,89.00
2023-03-17T11:52:57.044Z,90.00
2023-03-17T11:58:46.171Z,89.10
2023-03-17T12:01:23.477Z,87.50
2023-03-17T12:04:07.233Z,89.10
2023-03-17T12:06:41.345Z,87.90
2023-03-17T12:09:22.602Z,90.30
2023-03-17T12:12:00.072Z,87.40
2023-03-17T12:14:43.058Z,86.90
2023-03-17T12:17:25.880Z,88.00
2023-03-17T12:20:10.027Z,85.30
2023-03-17T12:22:48.629Z,86.50
2023-03-17T12:25:28.214Z,85.20
2023-03-17T12:28:09.318Z,85.10
2023-03-17T12:30:51.657Z,85.20
2023-03-17T12:33:28.879Z,85.90
2023-03-17T12:36:07.994Z,86.10
2023-03-17T12:38:52.713Z,86.70
2023-03-17T12:42:04.128Z,86.00
2023-03-17T12:44:58.937Z,83.80
2023-03-17T12:47:59.467Z,84.30
2023-03-17T12:51:13.042Z,85.20
2023-03-17T12:53:52.819Z,86.90
2023-03-17T12:56:32.416Z,85.50
2023-03-17T12:59:09.904Z,85.10
2023-03-17T13:01:50.939Z,86.90
2023-03-17T13:04:36.284Z,85.10
2023-03-17T13:07:14.617Z,84.30
2023-03-17T13:09:54.012Z,85.20
2023-03-17T13:13:09.815Z,85.20
2023-03-17T13:16:00.487Z,85.80
2023-03-17T13:18:57.758Z,84.00
2023-03-17T13:21:42.047Z,84.80
2023-03-17T13:24:52.115Z,85.20
2023-03-17T13:27:49.553Z,83.80
2023-03-17T13:30:47.595Z,84.90
2023-03-17T13:33:26.692Z,85.00
2023-03-17T13:36:25.300Z,85.30
2023-03-17T13:39:24.695Z,85.70
2023-03-17T13:42:01.159Z,86.00
2023-03-17T13:44:54.142Z,86.00
2023-03-17T13:47:38.666Z,85.40
2023-03-17T13:50:12.325Z,84.50
2023-03-17T13:52:50.676Z,84.30
2023-03-17T13:55:25.240Z,84.60
2023-03-17T13:58:32.946Z,84.70
2023-03-17T14:01:11.035Z,85.50
2023-03-17T14:03:49.059Z,84.50
2023-03-17T14:06:26.923Z,84.30
2023-03-17T14:09:06.632Z,83.90
2023-03-17T14:11:46.828Z,84.00
2023-03-17T14:14:34.869Z,83.80
2023-03-17T14:17:19.921Z,83.90
2023-03-17T14:20:08.761Z,83.50
2023-03-17T14:22:45.780Z,83.60
2023-03-17T14:25:24.966Z,82.80
2023-03-17T14:27:59.697Z,83.40
2023-03-17T14:30:38.946Z,83.10
2023-03-17T14:33:20.637Z,82.70
2023-03-17T14:35:56.801Z,82.60
2023-03-17T14:38:33.679Z,82.60
2023-03-17T14:41:09.834Z,83.00
2023-03-17T14:43:45.845Z,83.40
2023-03-17T14:46:24.631Z,83.80
2023-03-17T14:49:02.491Z,83.20
2023-03-17T14:51:38.601Z,83.30
2023-03-17T14:54:16.826Z,81.30
2023-03-17T14:57:00.347Z,81.10
2023-03-17T14:59:37.141Z,80.60
2023-03-17T15:02:26.003Z,80.60
2023-03-17T15:05:04.949Z,80.80
2023-03-17T15:07:47.438Z,80.90
2023-03-17T15:10:23.539Z,79.70
2023-03-17T15:13:04.876Z,80.90
2023-03-17T15:15:44.954Z,81.70
2023-03-17T15:18:24.157Z,80.90
2023-03-17T15:21:06.590Z,81.50
2023-03-17T15:23:44.904Z,81.60
2023-03-17T15:26:32.948Z,80.80
2023-03-17T15:29:12.348Z,81.00
2023-03-17T15:31:55.624Z,80.00
2023-03-17T15:34:32.063Z,79.40
2023-03-17T15:37:23.130Z,80.70
2023-03-17T15:40:03.993Z,82.20
2023-03-17T15:42:44.349Z,81.00
2023-03-17T15:45:20.742Z,81.10
2023-03-17T15:48:00.650Z,81.60
2023-03-17T15:50:39.464Z,81.60
2023-03-17T15:53:20.552Z,81.00
2023-03-17T15:56:00.613Z,80.90
2023-03-17T15:58:41.999Z,81.30
2023-03-17T16:01:21.693Z,81.50
2023-03-17T16:03:57.169Z,82.10
2023-03-17T16:06:35.902Z,82.10
2023-03-17T16:09:25.413Z,82.90
2023-03-17T16:12:04.728Z,83.90
2023-03-17T16:14:42.947Z,84.00
2023-03-17T16:17:21.640Z,84.70
2023-03-17T16:20:00.264Z,85.10
2023-03-17T16:22:43.419Z,85.40
2023-03-17T16:25:31.478Z,85.40
2023-03-17T16:28:05.163Z,86.10
2023-03-17T16:30:40.906Z,86.50
2023-03-17T16:33:20.777Z,86.90
2023-03-17T16:35:58.874Z,87.40
2023-03-17T16:38:35.980Z,86.50
2023-03-17T16:41:22.961Z,87.00
2023-03-17T16:43:59.525Z,87.20
2023-03-17T16:46:36.595Z,87.80
2023-03-17T16:49:16.031Z,87.40
2023-03-17T16:51:50.712Z,87.80
2023-03-17T16:54:32.342Z,89.60
2023-03-17T17:00:23.906Z,88.40
2023-03-17T17:02:59.268Z,88.40
2023-03-17T17:05:35.010Z,88.80
2023-03-17T17:08:10.257Z,88.80
2023-03-17T17:10:47.725Z,88.70
2023-03-17T17:13:28.273Z,89.20
2023-03-17T17:16:05.563Z,89.10
2023-03-17T17:18:41.280Z,89.50
2023-03-17T17:21:17.425Z,89.20
2023-03-17T17:23:53.691Z,89.60
2023-03-17T17:26:29.944Z,89.60
2023-03-17T17:29:08.751Z,89.80
2023-03-17T17:31:44.477Z,90.00
2023-03-17T17:34:29.146Z,90.00
2023-03-17T17:37:05.384Z,90.10
2023-03-17T17:39:40.831Z,90.30
2023-03-17T17:42:20.775Z,90.30
2023-03-17T17:44:55.062Z,90.30
2023-03-17T17:47:33.864Z,90.50
2023-03-17T17:50:06.224Z,90.50
2023-03-17T17:52:41.657Z,90.60
2023-03-17T17:55:16.162Z,90.60
2023-03-17T17:57:52.595Z,90.70
2023-03-17T18:00:27.259Z,90.90
2023-03-17T18:03:06.790Z,90.90
2023-03-17T18:05:42.629Z,91.10
2023-03-17T18:08:18.398Z,91.10
2023-03-17T18:10:55.989Z,91.20
2023-03-17T18:13:31.542Z,91.20
2023-03-17T18:16:10.641Z,91.30
2023-03-17T18:18:49.644Z,91.60
2023-03-17T18:21:24.782Z,91.50
2023-03-17T18:24:00.816Z,91.80
2023-03-17T18:26:36.094Z,91.80
2023-03-17T18:29:12.816Z,91.90
2023-03-17T18:31:50.813Z,92.10
2023-03-17T18:34:32.234Z,92.10
2023-03-17T18:37:19.479Z,92.20
2023-03-17T18:40:12.610Z,92.50
2023-03-17T18:42:53.136Z,92.70
2023-03-17T18:45:28.858Z,92.90
2023-03-17T18:48:08.533Z,92.90
2023-03-17T18:50:54.251Z,92.90
2023-03-17T18:53:31.429Z,93.40
2023-03-17T18:56:17.459Z,93.30
2023-03-17T18:58:53.104Z,93.50
2023-03-17T19:01:29.281Z,93.60
2023-03-17T19:04:07.355Z,93.70
2023-03-17T19:06:46.036Z,93.80
2023-03-17T19:09:21.741Z,93.90
2023-03-17T19:11:58.393Z,94.10
2023-03-17T19:14:35.168Z,94.20
2023-03-17T19:17:10.669Z,94.30
2023-03-17T19:19:45.894Z,94.70
2023-03-17T19:22:27.690Z,94.60
2023-03-17T19:25:04.781Z,94.70
2023-03-17T19:27:40.674Z,94.80
2023-03-17T19:30:18.346Z,95.00
2023-03-17T19:32:55.583Z,95.10
2023-03-17T19:35:30.470Z,95.30
2023-03-17T19:38:12.773Z,95.50
2023-03-17T19:40:47.592Z,95.50
2023-03-17T19:43:39.537Z,95.60
2023-03-17T19:46:16.500Z,95.80
2023-03-17T19:48:51.654Z,95.90
2023-03-17T19:51:27.711Z,96.10
2023-03-17T19:54:06.638Z,96.20
2023-03-17T19:56:44.569Z,96.30
2023-03-17T19:59:20.287Z,96.50
2023-03-17T20:01:56.448Z,96.70
2023-03-17T20:04:31.921Z,96.90
2023-03-17T20:07:07.272Z,96.90
2023-03-17T20:09:49.183Z,97.20
2023-03-17T20:12:25.836Z,97.20
2023-03-17T20:15:04.520Z,97.30
2023-03-17T20:17:40.593Z,97.60
2023-03-17T20:20:14.977Z,97.60
2023-03-17T20:22:52.208Z,97.80
2023-03-17T20:25:29.634Z,98.00
2023-03-17T20:28:06.312Z,98.10
2023-03-17T20:30:40.376Z,98.20
2023-03-17T20:33:15.493Z,98.40
2023-03-17T20:35:51.896Z,98.50
2023-03-17T20:38:29.158Z,98.60
2023-03-17T20:41:15.075Z,98.80
2023-03-17T20:43:52.348Z,98.70
2023-03-17T20:46:28.988Z,98.90
2023-03-17T20:49:08.246Z,98.90
2023-03-17T20:51:46.918Z,98.90
2023-03-17T20:54:24.615Z,98.90
2023-03-17T20:57:10.492Z,99.00
2023-03-17T20:59:55.214Z,99.10
2023-03-17T21:02:37.353Z,99.10
2023-03-17T21:05:20.680Z,99.20
2023-03-17T21:07:58.476Z,99.30
2023-03-17T21:10:37.199Z,99.30
2023-03-17T21:13:24.911Z,99.50
2023-03-17T21:16:04.547Z,99.70
2023-03-17T21:18:47.603Z,99.80
2023-03-17T21:21:26.158Z,99.90
2023-03-17T21:24:11.788Z,99.90
2023-03-17T21:26:52.848Z,99.90
2023-03-17T21:29:29.410Z,99.90
2023-03-17T21:32:12.533Z,99.90
2023-03-17T21:34:47.732Z,99.90
2023-03-17T21:37:29.375Z,99.90
2023-03-17T21:40:09.281Z,99.90
2023-03-17T21:42:47.705Z,99.90
2023-03-17T21:45:25.680Z,99.90
2023-03-17T21:48:04.711Z,99.90
2023-03-17T21:50:45.136Z,99.90
2023-03-17T21:53:22.228Z,99.90
2023-03-17T21:56:03.458Z,99.90
2023-03-17T21:58:39.228Z,99.90
2023-03-17T22:01:15.770Z,99.90
2023-03-17T22:03:58.779Z,99.90
2023-03-17T22:06:37.262Z,99.90
2023-03-17T22:09:19.125Z,99.90
2023-03-17T22:11:54.505Z,99.90
2023-03-17T22:14:34.898Z,99.90
2023-03-17T22:17:14.779Z,99.90
2023-03-17T22:19:58.118Z,99.90
2023-03-17T22:22:39.116Z,99.90
2023-03-17T22:25:16.294Z,99.90
2023-03-17T22:27:55.952Z,99.90
2023-03-17T22:30:33.542Z,99.90
2023-03-17T22:33:12.097Z,99.90
2023-03-17T22:35:52.542Z,99.90
2023-03-17T22:38:35.216Z,99.90
2023-03-17T22:41:09.434Z,99.90
2023-03-17T22:43:47.192Z,99.90
2023-03-17T22:46:18.184Z,99.90
2023-03-17T22:49:00.438Z,99.90
2023-03-17T22:51:31.290Z,99.90
2023-03-17T22:54:12.589Z,99.90
2023-03-17T22:56:52.623Z,99.90
2023-03-17T22:59:30.411Z,99.90
2023-03-17T23:02:06.683Z,99.90
2023-03-17T23:04:44.236Z,99.90
2023-03-17T23:07:23.534Z,99.90
2023-03-17T23:10:10.499Z,99.90
2023-03-17T23:12:49.810Z,99.90
2023-03-17T23:15:35.379Z,99.90
2023-03-17T23:18:10.698Z,99.90
2023-03-17T23:20:54.169Z,99.90
2023-03-17T23:23:29.343Z,99.90
2023-03-17T23:26:16.061Z,99.90
2023-03-17T23:28:56.184Z,99.90
2023-03-17T23:31:34.420Z,99.90
2023-03-17T23:34:20.379Z,99.90
2023-03-17T23:37:02.430Z,99.90
2023-03-17T23:39:39.502Z,99.90
2023-03-17T23:42:19.206Z,99.90
2023-03-17T23:44:56.836Z,99.90
2023-03-17T23:47:35.092Z,99.90
2023-03-17T23:53:08.149Z,99.90
2023-03-17T23:55:44.243Z,99.90
2023-03-17T23:58:27.894Z,99.90
